Time;durP1;ratioP1;P1;durP2;ratioP2;P2;SDS_P1;SDS_P2;PMS_P1;PMS_P2;Temp;Humidity;BMP_temperature;BMP_pressure;BME280_temperature;BME280_humidity;BME280_pressure;Samples;Min_cycle;Max_cycle;Signal;HPM_P1;HPM_P2
2021/08/04 00:04:33;;;;;;;4.63;3.60;;;20.40;67.90;;;;;;10459200;28;20057;-46
2021/08/04 00:09:33;;;;;;;5.05;2.92;;;20.40;67.90;;;;;;10458908;28;20094;-46
2021/08/04 00:14:34;;;;;;;3.80;2.95;;;20.40;67.80;;;;;;10441339;28;20047;-47
2021/08/04 00:19:35;;;;;;;3.50;3.17;;;20.40;67.70;;;;;;10459460;28;20436;-46
2021/08/04 00:24:36;;;;;;;3.70;3.28;;;20.40;67.60;;;;;;10449747;28;20373;-46
2021/08/04 00:29:37;;;;;;;5.38;3.20;;;20.40;67.50;;;;;;10458234;28;20112;-46
2021/08/04 00:34:37;;;;;;;4.07;2.95;;;20.40;67.40;;;;;;10446637;28;20028;-46
2021/08/04 00:39:38;;;;;;;3.17;2.88;;;20.40;67.30;;;;;;10456733;28;20063;-46
2021/08/04 00:44:39;;;;;;;4.53;3.58;;;20.40;67.30;;;;;;10457524;28;20036;-46
2021/08/04 00:49:39;;;;;;;3.92;3.17;;;20.40;67.30;;;;;;10457269;28;20105;-47
2021/08/04 00:54:40;;;;;;;3.75;3.22;;;20.40;67.30;;;;;;10457197;28;20032;-46
2021/08/04 00:59:41;;;;;;;3.47;3.08;;;20.40;67.30;;;;;;10456807;28;20056;-46
2021/08/04 01:05:00;;;;;;;4.45;3.42;;;20.30;67.10;;;;;;10450994;28;20397;-46
2021/08/04 01:10:26;;;;;;;3.80;3.10;;;20.30;67.10;;;;;;10438803;28;20493;-47
2021/08/04 01:15:33;;;;;;;4.65;3.60;;;20.30;67.00;;;;;;10456396;28;20679;-46
2021/08/04 01:20:34;;;;;;;4.63;3.10;;;20.30;67.00;;;;;;10451020;28;20431;-47
2021/08/04 01:25:58;;;;;;;4.32;3.15;;;20.30;66.80;;;;;;10457207;28;20032;-48
2021/08/04 01:31:09;;;;;;;4.35;3.15;;;20.30;66.80;;;;;;10438242;28;20025;-46
2021/08/04 01:36:11;;;;;;;3.95;3.30;;;20.30;66.80;;;;;;10438738;28;20025;-47
2021/08/04 01:41:14;;;;;;;4.82;2.72;;;20.30;66.70;;;;;;10438031;28;20466;-48
2021/08/04 01:46:15;;;;;;;4.15;2.90;;;20.30;66.60;;;;;;10437832;28;20445;-46
2021/08/04 01:51:18;;;;;;;3.70;2.92;;;20.30;66.50;;;;;;10440616;28;20029;-46
2021/08/04 01:56:18;;;;;;;3.38;2.88;;;20.30;66.50;;;;;;10438438;28;20029;-46
2021/08/04 02:01:19;;;;;;;3.58;2.88;;;20.20;66.40;;;;;;10455556;28;20065;-50
2021/08/04 02:06:31;;;;;;;3.42;3.05;;;20.30;66.40;;;;;;10437793;28;20024;-46
2021/08/04 02:12:02;;;;;;;4.75;3.50;;;20.20;66.30;;;;;;10454615;28;20076;-47
2021/08/04 02:17:33;;;;;;;3.78;3.10;;;20.30;66.30;;;;;;10454954;28;20099;-48
2021/08/04 02:23:07;;;;;;;3.78;3.08;;;20.30;66.20;;;;;;10470289;28;20028;-47
2021/08/04 02:28:17;;;;;;;3.80;2.80;;;20.30;66.20;;;;;;10462902;28;20032;-47
2021/08/04 02:33:20;;;;;;;4.32;2.65;;;20.20;66.20;;;;;;10462886;28;20052;-46
2021/08/04 02:38:21;;;;;;;4.18;3.20;;;20.20;66.20;;;;;;10431630;28;20159;-46
2021/08/04 02:43:23;;;;;;;4.20;3.10;;;20.20;66.10;;;;;;10444770;28;20033;-47
2021/08/04 02:48:25;;;;;;;4.00;3.13;;;20.20;66.00;;;;;;10461783;28;20098;-46
2021/08/04 02:53:26;;;;;;;3.90;2.60;;;20.20;65.90;;;;;;10461947;28;20074;-49
2021/08/04 02:58:26;;;;;;;2.85;2.60;;;20.20;65.90;;;;;;10462184;28;20108;-47
2021/08/04 03:03:27;;;;;;;4.22;2.75;;;20.20;65.90;;;;;;10461915;28;20112;-46
2021/08/04 03:08:28;;;;;;;3.60;2.80;;;20.10;65.90;;;;;;10461253;28;20041;-46
2021/08/04 03:13:28;;;;;;;3.20;2.60;;;20.10;65.80;;;;;;10461088;28;20060;-46
2021/08/04 03:18:29;;;;;;;3.78;2.58;;;20.10;65.80;;;;;;10460864;28;20033;-46
2021/08/04 03:23:30;;;;;;;3.35;2.80;;;20.10;65.70;;;;;;10470932;28;20112;-47
2021/08/04 03:28:30;;;;;;;4.28;3.10;;;20.10;65.70;;;;;;10460837;28;20036;-47
2021/08/04 03:33:31;;;;;;;3.88;3.00;;;20.10;65.60;;;;;;10459863;28;20434;-47
2021/08/04 03:38:32;;;;;;;3.90;3.03;;;20.10;65.60;;;;;;10442057;28;20042;-47
2021/08/04 03:43:32;;;;;;;3.30;2.65;;;20.10;65.50;;;;;;10460107;28;20608;-47
2021/08/04 03:48:33;;;;;;;3.72;2.85;;;20.10;65.40;;;;;;10459508;28;20549;-47
2021/08/04 03:53:34;;;;;;;4.78;2.97;;;20.10;65.40;;;;;;10441312;28;20108;-46
2021/08/04 03:58:34;;;;;;;3.92;2.90;;;20.10;65.40;;;;;;10440350;28;20478;-51
2021/08/04 04:03:35;;;;;;;3.47;2.90;;;20.00;65.30;;;;;;10457007;28;20041;-48
2021/08/04 04:08:36;;;;;;;2.85;2.53;;;20.00;65.40;;;;;;10459216;28;20087;-47
2021/08/04 04:13:37;;;;;;;3.50;3.05;;;20.10;65.40;;;;;;10458826;28;20107;-46
2021/08/04 04:18:38;;;;;;;3.47;2.33;;;20.00;65.30;;;;;;10440625;28;20021;-46
2021/08/04 04:23:39;;;;;;;2.60;2.40;;;20.00;65.20;;;;;;10469563;28;20366;-45
2021/08/04 04:28:39;;;;;;;3.33;2.78;;;20.00;65.20;;;;;;10458464;28;20043;-46
2021/08/04 04:33:40;;;;;;;3.03;2.50;;;20.00;65.20;;;;;;10457694;28;20061;-47
2021/08/04 04:38:41;;;;;;;3.92;2.88;;;20.00;65.20;;;;;;10443312;28;20477;-48
2021/08/04 04:43:41;;;;;;;2.92;2.22;;;20.00;65.20;;;;;;10456810;28;20063;-47
2021/08/04 04:48:42;;;;;;;3.55;2.63;;;20.00;65.10;;;;;;10452839;28;20053;-46
2021/08/04 04:53:43;;;;;;;6.20;2.70;;;20.00;65.30;;;;;;10456018;28;20373;-46
2021/08/04 04:58:44;;;;;;;3.63;2.58;;;19.90;65.30;;;;;;10456836;28;20044;-46
2021/08/04 05:03:44;;;;;;;3.80;2.60;;;20.00;65.40;;;;;;10456945;28;20385;-47
2021/08/04 05:08:46;;;;;;;3.45;2.75;;;19.90;65.30;;;;;;10456653;28;20104;-47
2021/08/04 05:13:47;;;;;;;3.50;2.72;;;20.00;65.30;;;;;;10456283;28;20029;-47
2021/08/04 05:18:48;;;;;;;2.58;2.10;;;20.00;65.40;;;;;;10455486;28;20031;-46
2021/08/04 05:23:48;;;;;;;4.05;2.35;;;20.00;65.60;;;;;;10439734;28;20474;-47
2021/08/04 05:28:51;;;;;;;6.70;2.58;;;20.00;65.80;;;;;;10456011;28;20122;-47
2021/08/04 05:33:52;;;;;;;6.93;2.83;;;20.00;66.00;;;;;;10455545;28;20134;-48
2021/08/04 05:38:53;;;;;;;6.85;2.60;;;20.00;66.40;;;;;;10454727;28;20064;-47
2021/08/04 05:43:54;;;;;;;6.50;2.80;;;20.00;66.40;;;;;;10455867;28;20086;-50
2021/08/04 05:48:55;;;;;;;3.33;2.53;;;20.10;66.60;;;;;;10446436;28;20175;-47
2021/08/04 05:53:55;;;;;;;5.05;2.78;;;20.00;66.90;;;;;;10455490;28;20149;-45
2021/08/04 05:58:56;;;;;;;5.47;2.58;;;20.10;66.80;;;;;;10463119;28;20059;-47
2021/08/04 06:03:57;;;;;;;5.95;2.85;;;20.10;66.90;;;;;;10463529;28;20047;-48
2021/08/04 06:08:57;;;;;;;8.88;2.85;;;20.10;67.00;;;;;;10463941;28;20078;-46
2021/08/04 06:13:58;;;;;;;5.18;2.50;;;20.10;67.50;;;;;;10446111;28;20095;-47
2021/08/04 06:18:59;;;;;;;8.82;3.22;;;20.10;67.30;;;;;;10445313;28;20025;-54
2021/08/04 06:23:59;;;;;;;16.65;3.38;;;20.00;67.50;;;;;;10456781;28;20123;-50
2021/08/04 06:29:00;;;;;;;17.15;3.83;;;20.00;67.30;;;;;;10462853;28;20485;-46
2021/08/04 06:34:01;;;;;;;15.77;3.42;;;20.00;67.50;;;;;;10445064;28;20044;-47
2021/08/04 06:39:02;;;;;;;18.23;4.25;;;20.00;67.50;;;;;;10461570;28;20029;-46
2021/08/04 06:44:03;;;;;;;12.57;3.55;;;20.00;67.90;;;;;;10461942;28;20033;-47
2021/08/04 06:49:06;;;;;;;12.20;3.33;;;20.00;67.90;;;;;;10461844;28;20087;-47
2021/08/04 06:54:06;;;;;;;8.98;3.10;;;20.00;68.10;;;;;;10443399;28;20029;-47
2021/08/04 06:59:07;;;;;;;15.95;3.15;;;20.10;68.20;;;;;;10461247;28;20644;-47
2021/08/04 07:04:08;;;;;;;20.17;4.38;;;20.10;68.00;;;;;;10461506;28;20033;-47
2021/08/04 07:09:08;;;;;;;16.48;4.40;;;20.10;68.00;;;;;;10460379;28;20485;-49
2021/08/04 07:14:11;;;;;;;13.35;3.45;;;20.10;68.20;;;;;;10461065;28;20060;-52
2021/08/04 07:19:11;;;;;;;12.30;3.42;;;20.10;68.20;;;;;;10448540;28;20029;-49
2021/08/04 07:24:13;;;;;;;10.63;3.60;;;20.10;68.20;;;;;;10441791;28;20664;-47
2021/08/04 07:29:13;;;;;;;7.10;3.08;;;20.10;68.10;;;;;;10447848;28;20036;-48
2021/08/04 07:34:15;;;;;;;9.13;3.53;;;20.10;68.30;;;;;;10457398;28;20037;-47
2021/08/04 07:39:17;;;;;;;7.28;3.28;;;20.00;68.20;;;;;;10458644;28;20028;-47
2021/08/04 07:44:17;;;;;;;7.45;3.72;;;20.10;68.30;;;;;;10458751;28;20033;-48
2021/08/04 07:49:18;;;;;;;6.10;2.17;;;20.10;68.30;;;;;;10459200;28;20073;-47
2021/08/04 07:54:19;;;;;;;4.97;2.42;;;20.10;68.30;;;;;;10441772;28;20041;-50
2021/08/04 07:59:20;;;;;;;8.73;2.30;;;20.20;68.40;;;;;;10459357;28;20033;-48
2021/08/04 08:04:20;;;;;;;3.60;2.30;;;20.20;68.30;;;;;;10459197;28;20499;-47
2021/08/04 08:09:21;;;;;;;4.60;2.40;;;20.20;68.30;;;;;;10459140;28;20061;-46
2021/08/04 08:14:22;;;;;;;5.35;2.50;;;20.20;68.40;;;;;;10458798;28;20057;-49
2021/08/04 08:19:24;;;;;;;3.35;2.20;;;20.20;68.30;;;;;;10458215;28;20028;-46
2021/08/04 08:24:25;;;;;;;4.07;2.15;;;20.20;68.30;;;;;;10449411;28;20033;-51
2021/08/04 08:29:26;;;;;;;6.78;2.30;;;20.20;68.20;;;;;;10458150;28;20033;-47
2021/08/04 08:34:26;;;;;;;7.00;2.17;;;20.20;68.30;;;;;;10457937;28;20037;-48
2021/08/04 08:39:27;;;;;;;4.55;2.33;;;20.20;68.30;;;;;;10458145;28;20538;-47
2021/08/04 08:44:28;;;;;;;4.40;1.95;;;20.20;68.20;;;;;;10457934;28;20155;-46
2021/08/04 08:49:29;;;;;;;3.30;2.05;;;20.30;68.10;;;;;;10457514;28;20045;-50
2021/08/04 08:54:30;;;;;;;4.45;2.65;;;20.30;68.10;;;;;;10456996;28;20075;-50
2021/08/04 08:59:30;;;;;;;4.68;2.35;;;20.30;68.20;;;;;;10447336;28;20079;-45
2021/08/04 09:04:31;;;;;;;4.38;2.50;;;20.30;68.20;;;;;;10456275;28;20067;-53
2021/08/04 09:09:34;;;;;;;6.38;2.25;;;20.30;68.50;;;;;;10455917;28;20040;-54
2021/08/04 09:14:37;;;;;;;7.85;2.10;;;20.40;68.40;;;;;;10455910;28;20497;-54
2021/08/04 09:19:45;;;;;;;5.75;2.40;;;20.30;68.20;;;;;;10456576;28;20474;-56
2021/08/04 09:25:08;;;;;;;5.88;2.13;;;20.40;68.20;;;;;;10455689;28;20037;-57
2021/08/04 09:30:13;;;;;;;5.63;2.42;;;20.40;68.10;;;;;;10455312;28;20107;-57
2021/08/04 09:35:20;;;;;;;3.35;2.05;;;20.40;68.10;;;;;;10455457;28;20032;-57
2021/08/04 09:40:24;;;;;;;5.10;2.40;;;20.40;68.10;;;;;;10443014;28;20378;-57
2021/08/04 09:45:38;;;;;;;3.42;2.28;;;20.40;68.10;;;;;;10455313;28;20415;-57
2021/08/04 09:50:57;;;;;;;6.45;3.35;;;20.40;67.70;;;;;;10454881;28;20044;-57
2021/08/04 09:56:13;;;;;;;5.30;2.20;;;20.40;68.00;;;;;;10451867;28;20071;-56
2021/08/04 10:01:17;;;;;;;4.38;2.75;;;20.40;67.90;;;;;;10451919;28;20040;-57
2021/08/04 10:06:21;;;;;;;7.55;2.17;;;20.50;68.00;;;;;;10452087;28;20060;-57
2021/08/04 10:11:23;;;;;;;4.55;2.15;;;20.40;67.80;;;;;;10452728;28;20393;-58
2021/08/04 10:16:33;;;;;;;4.45;2.20;;;20.50;67.60;;;;;;10452171;28;20025;-57
2021/08/04 10:21:34;;;;;;;;;;;20.50;67.70;;;;;;10442545;28;20051;-58
2021/08/04 10:26:36;;;;;;;3.75;2.40;;;20.50;67.70;;;;;;10454596;28;20327;-58
2021/08/04 10:31:40;;;;;;;4.93;2.83;;;20.50;67.50;;;;;;10436783;28;20029;-57
2021/08/04 10:36:41;;;;;;;3.28;2.17;;;20.50;67.30;;;;;;10431897;28;20036;-57
2021/08/04 10:42:36;;;;;;;4.28;2.10;;;20.60;67.20;;;;;;10436689;28;20460;-56
2021/08/04 10:47:36;;;;;;;2.83;2.17;;;20.70;67.20;;;;;;10221666;29;20062;-56
2021/08/04 10:52:57;;;;;;;4.63;2.20;;;20.70;66.90;;;;;;10405892;28;20120;-57
2021/08/04 10:58:04;;;;;;;5.15;2.63;;;20.80;66.90;;;;;;10458950;28;20112;-58
2021/08/04 11:03:29;;;;;;;3.17;2.58;;;20.80;66.90;;;;;;10449540;28;20063;-58
2021/08/04 11:08:30;;;;;;;3.35;2.10;;;20.80;66.90;;;;;;10442526;28;20032;-56
2021/08/04 11:13:45;;;;;;;3.22;1.70;;;20.80;66.70;;;;;;10461097;28;20036;-55
2021/08/04 11:19:03;;;;;;;6.32;2.95;;;20.80;66.80;;;;;;10460679;28;20037;-56
2021/08/04 11:24:06;;;;;;;3.95;2.05;;;20.80;66.60;;;;;;10460896;28;20547;-58
2021/08/04 11:29:08;;;;;;;6.78;3.60;;;20.80;66.90;;;;;;10442897;28;20032;-55
2021/08/04 11:34:30;;;;;;;4.85;2.45;;;20.90;66.80;;;;;;10460495;28;20040;-54
2021/08/04 11:39:31;;;;;;;6.18;2.67;;;20.90;66.70;;;;;;10442514;28;20047;-56
2021/08/04 11:44:34;;;;;;;6.68;2.38;;;20.90;66.70;;;;;;10455941;28;20518;-56
2021/08/04 11:49:43;;;;;;;4.90;1.98;;;21.00;66.60;;;;;;10459001;28;20090;-56
2021/08/04 11:55:10;;;;;;;5.85;2.22;;;21.00;66.70;;;;;;10458259;28;20481;-56
2021/08/04 12:00:17;;;;;;;4.57;2.30;;;21.00;66.60;;;;;;10442022;28;20025;-55
2021/08/04 12:05:18;;;;;;;4.80;2.40;;;21.00;66.60;;;;;;10458237;28;20032;-56
2021/08/04 12:10:21;;;;;;;4.70;3.00;;;21.00;66.50;;;;;;10446984;28;20503;-56
2021/08/04 12:15:25;;;;;;;3.28;2.08;;;21.00;66.70;;;;;;10458911;28;20517;-55
2021/08/04 12:20:28;;;;;;;4.07;2.15;;;21.10;66.70;;;;;;10467075;28;20028;-56
2021/08/04 12:25:31;;;;;;;3.85;2.83;;;21.10;66.60;;;;;;10442137;28;20029;-56
2021/08/04 12:30:38;;;;;;;3.42;2.00;;;21.10;66.50;;;;;;10457757;28;20043;-56
2021/08/04 12:36:04;;;;;;;2.92;2.17;;;21.10;66.70;;;;;;10457839;28;20048;-56
2021/08/04 12:41:07;;;;;;;4.03;2.33;;;21.10;66.60;;;;;;10457996;28;20378;-56
2021/08/04 12:46:09;;;;;;;3.67;2.05;;;21.10;66.60;;;;;;10457166;28;20051;-56
2021/08/04 12:51:23;;;;;;;3.08;2.05;;;21.00;66.60;;;;;;10458124;28;20448;-56
2021/08/04 12:56:32;;;;;;;4.03;2.15;;;21.00;66.60;;;;;;10456726;28;20082;-56
2021/08/04 13:01:39;;;;;;;2.95;1.80;;;20.90;66.70;;;;;;10457104;28;20520;-56
2021/08/04 13:07:04;;;;;;;3.13;2.65;;;21.00;66.80;;;;;;10438241;28;20079;-56
2021/08/04 13:12:17;;;;;;;3.15;2.20;;;21.00;66.80;;;;;;10453441;28;20378;-56
2021/08/04 13:17:22;;;;;;;3.05;1.90;;;21.00;66.90;;;;;;10454230;28;20542;-53
2021/08/04 13:22:24;;;;;;;4.85;2.40;;;21.00;66.90;;;;;;10467926;28;20033;-52
2021/08/04 13:27:36;;;;;;;4.07;2.55;;;21.10;67.00;;;;;;10433724;28;20037;-47
2021/08/04 13:32:37;;;;;;;5.95;2.97;;;21.10;66.70;;;;;;10452062;28;20469;-50
2021/08/04 13:37:38;;;;;;;2.42;1.98;;;21.10;66.90;;;;;;10454784;28;20061;-54
2021/08/04 13:42:42;;;;;;;4.07;2.25;;;21.20;66.80;;;;;;10455330;28;20346;-55
2021/08/04 13:47:45;;;;;;;5.55;2.20;;;21.20;66.80;;;;;;10437817;28;20049;-55
2021/08/04 13:52:48;;;;;;;5.07;2.67;;;21.20;66.80;;;;;;10455580;28;20034;-53
2021/08/04 13:57:49;;;;;;;3.10;2.70;;;21.20;66.80;;;;;;10437698;28;20025;-56
2021/08/04 14:02:51;;;;;;;6.38;3.30;;;21.20;66.60;;;;;;10454781;28;20111;-56
2021/08/04 14:07:52;;;;;;;6.55;3.47;;;21.20;67.30;;;;;;10455143;28;20069;-56
2021/08/04 14:12:52;;;;;;;4.97;2.53;;;21.20;66.80;;;;;;10455102;28;20035;-56
2021/08/04 14:17:53;;;;;;;5.43;2.88;;;21.20;67.00;;;;;;10459119;28;20025;-56
2021/08/04 14:22:57;;;;;;;4.78;2.78;;;21.20;67.00;;;;;;10455610;28;20037;-56
2021/08/04 14:27:57;;;;;;;5.15;2.22;;;21.20;67.10;;;;;;10463256;28;20025;-55
2021/08/04 14:32:58;;;;;;;6.03;2.65;;;21.10;67.00;;;;;;10455051;28;20029;-56
2021/08/04 14:37:59;;;;;;;3.75;2.33;;;21.10;67.10;;;;;;10435844;28;20072;-56
2021/08/04 14:43:00;;;;;;;3.40;2.47;;;21.10;67.10;;;;;;10439214;28;20029;-56
2021/08/04 14:48:00;;;;;;;4.10;2.60;;;21.10;67.20;;;;;;10453412;28;20084;-56
2021/08/04 14:53:01;;;;;;;2.42;2.08;;;21.10;67.30;;;;;;10460096;28;20037;-56
2021/08/04 14:58:02;;;;;;;3.72;2.42;;;21.10;67.30;;;;;;10453543;28;20074;-56
2021/08/04 15:03:02;;;;;;;4.03;2.35;;;21.10;67.40;;;;;;10443942;28;20436;-56
2021/08/04 15:08:05;;;;;;;3.72;2.47;;;21.10;67.50;;;;;;10434356;28;20041;-56
2021/08/04 15:13:06;;;;;;;5.10;2.33;;;21.10;67.50;;;;;;10461377;28;20040;-56
2021/08/04 15:18:06;;;;;;;2.78;2.22;;;21.10;67.50;;;;;;10460146;28;20092;-55
2021/08/04 15:23:07;;;;;;;5.30;3.22;;;21.00;67.50;;;;;;10460578;28;20523;-56
2021/08/04 15:28:09;;;;;;;3.45;2.45;;;21.00;67.50;;;;;;10426191;28;20060;-55
2021/08/04 15:33:10;;;;;;;3.88;3.05;;;21.00;67.50;;;;;;10461031;28;20032;-55
2021/08/04 15:38:11;;;;;;;3.72;3.00;;;21.00;67.50;;;;;;10441635;28;20021;-56
2021/08/04 15:43:12;;;;;;;4.75;3.13;;;21.00;67.50;;;;;;10459961;28;20051;-56
2021/08/04 15:48:12;;;;;;;2.78;2.10;;;21.00;67.60;;;;;;10459687;28;20099;-56
2021/08/04 15:53:13;;;;;;;3.70;2.47;;;21.00;67.50;;;;;;10459783;28;20433;-52
2021/08/04 15:58:14;;;;;;;5.00;3.35;;;21.00;67.00;;;;;;10459088;28;20061;-55
2021/08/04 16:03:15;;;;;;;6.95;3.33;;;21.00;67.20;;;;;;10441811;28;20032;-52
2021/08/04 16:08:15;;;;;;;11.20;5.13;;;21.10;67.90;;;;;;10456488;28;20017;-52
2021/08/04 16:13:16;;;;;;;12.75;6.30;;;21.20;69.00;;;;;;10457652;28;20074;-50
2021/08/04 16:18:17;;;;;;;11.90;5.22;;;21.40;71.40;;;;;;10458197;28;20456;-53
2021/08/04 16:23:17;;;;;;;8.52;5.07;;;21.50;71.90;;;;;;10433520;28;20060;-51
2021/08/04 16:28:20;;;;;;;8.52;4.50;;;21.50;72.20;;;;;;10458266;28;20033;-48
2021/08/04 16:33:21;;;;;;;11.15;4.07;;;21.50;70.80;;;;;;10458319;28;20029;-53
2021/08/04 16:38:21;;;;;;;13.98;4.05;;;21.50;70.70;;;;;;10457945;28;20112;-48
2021/08/04 16:43:22;;;;;;;5.85;3.83;;;21.50;70.50;;;;;;10456723;28;20037;-52
2021/08/04 16:48:23;;;;;;;5.75;3.30;;;21.40;70.30;;;;;;10456159;28;20069;-49
2021/08/04 16:53:23;;;;;;;5.50;3.58;;;21.40;69.80;;;;;;10456886;28;20029;-48
2021/08/04 16:58:24;;;;;;;8.30;3.80;;;21.40;69.30;;;;;;10457219;28;20075;-46
2021/08/04 17:03:25;;;;;;;6.07;3.47;;;21.40;69.40;;;;;;10457028;28;20033;-47
2021/08/04 17:08:26;;;;;;;3.88;2.97;;;21.30;69.40;;;;;;10456602;28;20500;-47
2021/08/04 17:13:26;;;;;;;5.75;4.10;;;21.30;69.80;;;;;;10456510;28;20468;-48
2021/08/04 17:18:27;;;;;;;6.68;3.30;;;21.30;69.70;;;;;;10456541;28;20056;-49
2021/08/04 17:23:28;;;;;;;4.45;3.10;;;21.30;69.90;;;;;;10466166;28;20025;-53
2021/08/04 17:28:28;;;;;;;4.35;3.30;;;21.30;70.00;;;;;;10438304;28;20036;-50
2021/08/04 17:33:29;;;;;;;4.72;2.72;;;21.30;69.70;;;;;;10455991;28;20151;-50
2021/08/04 17:38:30;;;;;;;4.32;3.05;;;21.30;69.70;;;;;;10454848;28;20053;-55
2021/08/04 17:43:31;;;;;;;7.25;3.65;;;21.30;70.20;;;;;;10448349;28;20099;-56
2021/08/04 17:48:31;;;;;;;6.03;2.95;;;21.30;70.10;;;;;;10445542;28;20123;-56
2021/08/04 17:53:32;;;;;;;5.35;3.13;;;21.30;70.00;;;;;;10449456;28;20362;-56
2021/08/04 17:58:33;;;;;;;5.68;3.10;;;21.30;69.90;;;;;;10454721;28;20474;-56
2021/08/04 18:03:34;;;;;;;5.43;3.20;;;21.30;69.80;;;;;;10450514;28;20485;-57
2021/08/04 18:08:34;;;;;;;3.40;2.60;;;21.30;69.90;;;;;;10445281;28;20040;-57
2021/08/04 18:13:35;;;;;;;3.38;2.70;;;21.30;69.70;;;;;;10430957;28;20553;-57
2021/08/04 18:18:36;;;;;;;5.97;3.10;;;21.30;69.70;;;;;;10449726;28;20064;-57
2021/08/04 18:23:38;;;;;;;5.35;3.25;;;21.30;69.30;;;;;;10436048;28;20563;-57
2021/08/04 18:28:39;;;;;;;9.60;2.90;;;21.20;69.20;;;;;;10438462;28;20040;-57
2021/08/04 18:33:39;;;;;;;3.60;2.58;;;21.30;69.40;;;;;;10453119;28;20035;-57
2021/08/04 18:38:40;;;;;;;4.57;2.78;;;21.20;69.40;;;;;;10436561;28;20025;-56
2021/08/04 18:43:41;;;;;;;4.88;2.70;;;21.20;69.50;;;;;;10450690;28;20041;-56
2021/08/04 18:48:43;;;;;;;4.38;2.60;;;21.20;69.50;;;;;;10379645;28;20123;-57
2021/08/04 18:53:44;;;;;;;4.70;2.72;;;21.20;69.50;;;;;;10368532;28;20117;-56
2021/08/04 18:58:44;;;;;;;2.75;2.30;;;21.20;69.60;;;;;;10359983;28;20590;-56
2021/08/04 19:03:45;;;;;;;3.35;2.53;;;21.20;69.60;;;;;;10372719;28;20060;-56
2021/08/04 19:08:46;;;;;;;11.07;3.58;;;21.20;69.60;;;;;;10367631;28;20574;-56
2021/08/04 19:13:47;;;;;;;4.13;2.60;;;21.20;69.60;;;;;;10363537;28;20468;-55
2021/08/04 19:18:47;;;;;;;4.72;2.85;;;21.20;69.40;;;;;;10371039;28;20022;-56
2021/08/04 19:23:48;;;;;;;3.30;2.63;;;21.20;69.30;;;;;;10367426;28;20041;-56
2021/08/04 19:28:49;;;;;;;3.90;2.65;;;21.20;69.20;;;;;;10367781;28;20100;-55
2021/08/04 19:33:49;;;;;;;3.38;2.58;;;21.20;69.20;;;;;;10378684;28;20423;-55
2021/08/04 19:38:51;;;;;;;4.45;3.35;;;21.20;69.20;;;;;;10375406;28;20053;-55
2021/08/04 19:43:51;;;;;;;5.00;2.90;;;21.20;69.00;;;;;;10375138;28;20026;-55
2021/08/04 19:48:52;;;;;;;4.03;2.53;;;21.20;69.00;;;;;;10437947;28;20061;-56
2021/08/04 19:53:53;;;;;;;3.70;2.95;;;21.20;68.90;;;;;;10441215;28;20037;-55
2021/08/04 19:58:53;;;;;;;3.53;2.90;;;21.20;68.90;;;;;;10458767;28;20450;-55
2021/08/04 20:03:54;;;;;;;3.08;2.78;;;21.20;68.80;;;;;;10459406;28;20105;-55
2021/08/04 20:08:55;;;;;;;4.35;3.05;;;21.20;68.80;;;;;;10459323;28;20060;-55
2021/08/04 20:13:56;;;;;;;2.95;2.65;;;21.10;68.70;;;;;;10457638;28;20064;-55
2021/08/04 20:18:56;;;;;;;3.97;3.13;;;21.20;68.80;;;;;;10458961;28;20025;-56
2021/08/04 20:23:57;;;;;;;3.65;3.20;;;21.20;68.80;;;;;;10458414;28;20150;-56
2021/08/04 20:28:58;;;;;;;3.22;2.78;;;21.20;68.70;;;;;;10458509;28;20466;-56
2021/08/04 20:33:59;;;;;;;3.50;2.90;;;21.20;68.70;;;;;;10466314;28;20037;-55
2021/08/04 20:38:59;;;;;;;3.00;2.53;;;21.20;68.70;;;;;;10440339;28;20037;-56
2021/08/04 20:44:00;;;;;;;3.65;3.25;;;21.20;68.60;;;;;;10437341;28;20029;-55
2021/08/04 20:49:01;;;;;;;3.40;2.83;;;21.20;68.70;;;;;;10457562;28;20076;-56
2021/08/04 20:54:03;;;;;;;3.35;2.97;;;21.20;68.60;;;;;;10456859;28;20052;-55
2021/08/04 20:59:06;;;;;;;3.47;2.78;;;21.20;68.60;;;;;;10457380;28;20025;-55
2021/08/04 21:04:06;;;;;;;3.45;2.75;;;21.20;68.50;;;;;;10457068;28;20135;-56
2021/08/04 21:09:07;;;;;;;4.00;2.70;;;21.20;68.60;;;;;;10439087;28;20080;-56
2021/08/04 21:14:08;;;;;;;5.35;3.53;;;21.20;68.50;;;;;;10456301;28;20063;-55
2021/08/04 21:19:09;;;;;;;4.57;3.40;;;21.20;68.50;;;;;;10439194;28;20499;-56
2021/08/04 21:24:09;;;;;;;3.05;2.70;;;21.20;68.50;;;;;;10450801;28;20070;-56
2021/08/04 21:29:10;;;;;;;3.75;2.70;;;21.20;68.50;;;;;;10447864;28;20061;-56
2021/08/04 21:34:11;;;;;;;4.07;3.22;;;21.20;68.80;;;;;;10457023;28;20121;-56
2021/08/04 21:39:11;;;;;;;3.03;2.53;;;21.20;68.50;;;;;;10445657;28;20477;-55
2021/08/04 21:44:12;;;;;;;3.83;2.83;;;21.10;68.50;;;;;;10455759;28;20155;-55
2021/08/04 21:49:13;;;;;;;3.10;2.70;;;21.10;68.50;;;;;;10455723;28;20076;-56
2021/08/04 21:54:14;;;;;;;4.75;3.38;;;21.10;68.50;;;;;;10455550;28;20047;-56
2021/08/04 21:59:14;;;;;;;4.00;3.08;;;21.10;68.60;;;;;;10455565;28;20381;-56
2021/08/04 22:04:15;;;;;;;3.75;2.80;;;21.10;68.60;;;;;;10455255;28;20041;-56
2021/08/04 22:09:16;;;;;;;3.63;2.53;;;21.10;68.60;;;;;;10438616;28;20104;-56
2021/08/04 22:14:16;;;;;;;3.22;2.70;;;21.10;68.60;;;;;;10455157;28;20123;-56
2021/08/04 22:19:17;;;;;;;3.20;2.63;;;21.10;68.60;;;;;;10455323;28;20021;-55
2021/08/04 22:24:18;;;;;;;3.78;2.72;;;21.10;68.70;;;;;;10436699;28;20033;-56
2021/08/04 22:29:18;;;;;;;3.60;2.70;;;21.10;68.70;;;;;;10454920;28;20061;-55
2021/08/04 22:34:19;;;;;;;3.60;2.78;;;21.10;68.70;;;;;;10462954;28;20071;-56
2021/08/04 22:39:19;;;;;;;3.03;2.50;;;21.10;68.70;;;;;;10460004;28;20500;-56
2021/08/04 22:44:20;;;;;;;3.40;2.80;;;21.10;68.70;;;;;;10462579;28;20129;-56
2021/08/04 22:49:21;;;;;;;3.65;3.25;;;21.10;68.70;;;;;;10462309;28;20052;-56
2021/08/04 22:54:21;;;;;;;3.10;2.72;;;21.10;68.70;;;;;;10461907;28;20035;-55
2021/08/04 22:59:22;;;;;;;4.60;3.30;;;21.10;68.70;;;;;;10462172;28;20113;-56
2021/08/04 23:04:23;;;;;;;3.38;2.70;;;21.10;68.70;;;;;;10461880;28;20076;-56
2021/08/04 23:09:23;;;;;;;3.15;2.80;;;21.10;68.80;;;;;;10443953;28;20071;-55
2021/08/04 23:14:24;;;;;;;3.60;2.75;;;21.10;68.80;;;;;;10461227;28;20531;-56
2021/08/04 23:19:25;;;;;;;4.55;2.50;;;21.10;68.80;;;;;;10461139;28;20063;-55
2021/08/04 23:24:25;;;;;;;3.25;2.80;;;21.10;68.80;;;;;;10435615;28;20068;-55
2021/08/04 23:29:26;;;;;;;4.10;2.45;;;21.10;68.90;;;;;;10455518;28;20067;-56
2021/08/04 23:34:27;;;;;;;2.60;2.13;;;21.10;68.90;;;;;;10468523;28;20032;-55
2021/08/04 23:39:27;;;;;;;4.40;2.78;;;21.00;68.90;;;;;;10446175;28;20094;-55
2021/08/04 23:44:28;;;;;;;3.65;3.03;;;21.10;69.00;;;;;;10442553;28;20517;-55
2021/08/04 23:49:30;;;;;;;3.33;2.90;;;21.10;69.00;;;;;;10442139;28;20167;-56
2021/08/04 23:54:31;;;;;;;3.20;2.63;;;21.00;69.00;;;;;;10460154;28;20044;-56
2021/08/04 23:59:31;;;;;;;3.50;2.40;;;21.00;69.00;;;;;;10459712;28;20422;-55
